ヘンダーソン基地の過去48時間の天気

ヘンダーソン基地 (Henderson Field Airport)

現在時刻: 12/7 19:40 SST (12/8 06:40 UTC) 以下の時間は現地時間です。

過去48時間のMETAR気象情報
時間 風向 風速(m/s) 視程 気温(℃) 湿度(%) 気圧(hPa) 天気現象
7 18:56 10 10km以上 23.3 85 1006.6
7 17:56 12 10km以上 23.3 82 1005.5
7 16:56 12 10km以上 23.3 85 1004.6
7 15:56 13 10km以上 23.3 85 1003.8 煙霧
7 14:56 15 10km以上 22.8 87 1003.3
7 13:56 15 10km以上 22.8 87 1003.1 もや
7 13:36 14 10km以上 23 83 1003
7 13:14 16 4850m 22 94 1003 弱い雨 もや
7 12:56 17 10km以上 22.8 87 1003.3
7 12:48 13 10km以上 23 89 1003 弱い雨
7 12:16 16 8050m 22 94 1003 弱い雨 もや
7 12:09 13 3200m 22 94 1004 弱い雨 もや
7 11:56 14 4000m 22.8 90 1003.9 弱い雨 もや
7 11:09 17 10km以上 22 83 1004
7 10:56 東北東 17 10km以上 23.3 87 1004.6
7 10:13 東北東 12 10km以上 24 83 1004
7 09:56 東北東 15 10km以上 23.3 85 1004.3
7 09:26 東北東 15 10km以上 23 89 1004
7 08:56 東北東 14 10km以上 22.2 87 1003.9
7 08:48 東北東 13 10km以上 22 88 1004
7 08:23 東北東 14 10km以上 22 88 1004
7 07:56 北東 11 10km以上 21.7 90 1004
7 06:56 北東 11 10km以上 22.2 87 1003.9
7 06:39 北東 11 10km以上 22 88 1004
7 05:56 北北東 10 10km以上 21.7 90 1004.3 弱い雨 もや
7 04:56 北北東 10 8050m 21.1 90 1004.8 弱い雨 もや
7 04:35 北北東 9 8050m 21 88 1005 弱い雨 もや
7 03:56 北北東 10 10km以上 21.7 84 1006
7 02:56 北北東 10 10km以上 21.7 84 1007.3
7 02:35 北北東 10 10km以上 22 83 1007
7 01:56 北北東 9 10km以上 20.6 93 1008.4 弱い雨
7 01:33 北北東 10 10km以上 21 88 1009 弱い雨
7 01:25 北北東 10 8050m 21 88 1009 弱い雨 もや
7 00:56 北北東 10 10km以上 21.1 87 1009.2
7 00:46 北北東 9 10km以上 21 88 1010 弱い雨
6 23:56 北北東 10 10km以上 21.1 87 1010.4
6 22:56 北北東 11 10km以上 20.6 87 1011.6 弱い雨
6 21:56 北北東 10 10km以上 21.1 81 1012.8
6 21:28 北北東 9 10km以上 21 83 1013
6 21:15 北北東 9 10km以上 21 83 1014 弱い雨
6 20:56 北北東 10 10km以上 20 87 1013.3 弱い雨
6 20:44 北北東 8 10km以上 20 88 1014 弱い雨
6 19:56 北北東 9 10km以上 21.1 76 1014
6 19:24 北北東 7 10km以上 20 83 1014 弱い雨
6 19:13 北北東 10 10km以上 20 83 1014 弱い雨
6 18:56 北北東 9 10km以上 20.6 75 1014.5 弱い雨
6 18:42 北北東 9 10km以上 21 73 1014
6 18:26 北北東 9 10km以上 21 73 1015 弱い雨
6 18:13 北北東 10 10km以上 21 73 1015
6 17:56 北北東 10 10km以上 21.1 71 1014.6 弱い雨
6 16:56 8 10km以上 21.1 68 1014.8
6 15:56 11 10km以上 21.7 63 1014.8
6 14:56 北北東 11 10km以上 22.2 59 1015.8
6 13:56 北北東 10 10km以上 22.2 61 1016.8
6 12:56 10 10km以上 22.2 59 1017.6
6 11:56 北北東 7 10km以上 22.2 59 1019.3
6 10:56 北北東 10 10km以上 22.2 59 1020.5
6 09:56 北北東 9 10km以上 21.7 61 1021.5
6 08:56 北北東 8 10km以上 21.1 63 1021.5
6 07:56 北北東 9 10km以上 20.6 63 1022
6 06:56 北北東 10 10km以上 20.6 61 1021.9
6 05:56 北東 10 10km以上 20 63 1022
6 04:56 北北東 8 10km以上 20 65 1022.5
6 03:56 北北東 10 10km以上 20 63 1023.2
6 02:56 北北東 7 10km以上 20 63 1024
6 01:56 北北東 8 10km以上 20 61 1024.8
6 00:56 北北東 9 10km以上 20 63 1025.4
5 23:56 北北東 8 10km以上 20 63 1026.6
5 22:56 北北東 8 10km以上 20 65 1027.3
5 21:56 北北東 7 10km以上 20 65 1027.6
5 20:56 北北東 8 10km以上 20 63 1027.9
5 19:56 北北東 6 10km以上 20 63 1028
PMDY 080556Z AUTO 10019G26KT 8SM BKN020 OVC026 23/21 A2972 RMK AO2 PK WND 10033/0527 RAB00E23 SLP066 P0000 60001 T02330206 10233 20222 53028 TSNO
PMDY 080456Z AUTO 10024G35KT 8SM BKN022 OVC026 23/20 A2969 RMK AO2 PK WND 09035/0447 SLP055 T02330200 TSNO
PMDY 080356Z AUTO 10024G29KT 7SM BKN020 23/21 A2966 RMK AO2 PK WND 10032/0346 SLP046 T02330206 TSNO
PMDY 080256Z AUTO 10025G40KT 6SM HZ BKN018 BKN027 OVC034 23/21 A2964 RMK AO2 PK WND 09040/0249 RAB0159E12 SLP038 P0000 60001 T02330206 53005 TSNO
PMDY 080156Z AUTO 09030G37KT 7SM BKN018 BKN023 OVC035 23/21 A2962 RMK AO2 PK WND 09038/0130 SLP033 T02280206 TSNO
PMDY 080056Z AUTO 10029G38KT 6SM BR FEW014 SCT019 BKN027 23/21 A2962 RMK AO2 PK WND 09043/0021 RAB05E22 SLP031 P0001 T02280206 TSNO
PMDY 080036Z AUTO 10027G40KT 9SM FEW016 SCT021 SCT045 23/20 A2962 RMK AO2 PK WND 09043/0021 RAB05E22 P0001 TSNO
PMDY 080014Z AUTO 09032G43KT 3SM -RA BR BKN018 BKN025 22/21 A2962 RMK AO2 PK WND 09043/0012 RAB05 P0001 TSNO
PMDY 072356Z AUTO 09033G39KT 7SM SCT019 BKN026 23/21 A2963 RMK AO2 PK WND 08039/2351 RAE52 SLP033 P0019 60025 T02280206 10239 20217 58010 TSNO
PMDY 072348Z AUTO 09025G32KT 7SM -RA BKN022 BKN085 23/21 A2963 RMK AO2 PK WND 08039/2331 P0019 TSNO
PMDY 072316Z AUTO 09032G37KT 5SM -RA BR 22/21 A2963 RMK AO2 PK WND 08037/2316 P0019 TSNO
PMDY 072309Z AUTO 09025G35KT 2SM -RA BR 22/21 A2964 RMK AO2 PK WND 09035/2304 VIS 3/4V5 P0018 TSNO $
PMDY 072256Z AUTO 10027G37KT 2 1/2SM -RA BR 23/21 A2964 RMK AO2 PK WND 07047/2202 VIS 1/2V5 RAB16E32B54 SLP039 P0004 T02280211 TSNO
PMDY 072209Z AUTO 08034G47KT 8SM SCT018 BKN055 OVC110 22/19 A2966 RMK AO2 PK WND 07047/2202 TSNO
PMDY 072156Z AUTO 07033G40KT 9SM SCT018 BKN028 OVC110 23/21 A2966 RMK AO2 PK WND 07040/2156 RAB34E46 CIG 022V040 SLP046 P0000 T02330211 TSNO
PMDY 072113Z AUTO 06024G39KT 9SM SCT019 BKN055 BKN110 24/21 A2966 RMK AO2 PK WND 07039/2104 TSNO
PMDY 072056Z AUTO 06029G36KT 10SM SCT019 BKN024 23/21 A2966 RMK AO2 PK WND 07039/2044 SLP043 60002 T02330206 53004 TSNO
PMDY 072026Z AUTO 07030G38KT 10SM BKN017 BKN110 23/21 A2965 RMK AO2 PK WND 07038/2017 TSNO
PMDY 071956Z AUTO 07027G33KT 10SM FEW017 22/20 A2964 RMK AO2 PK WND 06035/1911 SLP039 T02220200 TSNO
PMDY 071948Z AUTO 07026G32KT 10SM FEW017 SCT120 22/20 A2964 RMK AO2 PK WND 06035/1911 TSNO
PMDY 071923Z AUTO 06027G32KT 10SM BKN015 OVC019 22/20 A2965 RMK AO2 PK WND 06035/1911 TSNO
PMDY 071856Z AUTO 05021G32KT 10SM 22/20 A2965 RMK AO2 PK WND 05038/1816 RAB04E49 SLP040 P0002 T02170200 TSNO
PMDY 071756Z AUTO 04021G28KT 9SM 22/20 A2964 RMK AO2 PK WND 05034/1706 RAE07 SLP039 P0000 60007 T02220200 10222 20206 56022 TSNO
PMDY 071739Z AUTO 04022G29KT 10SM BKN017 BKN036 OVC110 22/20 A2964 RMK AO2 PK WND 05034/1706 RAE07 CIG 013V024 P0000 TSNO
PMDY 071656Z AUTO 03019G29KT 6SM -RA BR 22/20 A2966 RMK AO2 PK WND 03033/1619 RAE32B53 SLP043 P0001 T02170200 TSNO $
PMDY 071556Z AUTO 02020G26KT 5SM -RA BR 21/19 A2967 RMK AO2 PK WND 03029/1533 RAB03 PRESFR SLP048 P0003 T02110194 TSNO $
PMDY 071535Z AUTO 03018G29KT 5SM -RA BR 21/19 A2969 RMK AO2 PK WND 03029/1533 RAB03 P0001 TSNO $
PMDY 071456Z AUTO 02019G32KT 10SM SCT019 BKN025 OVC110 22/19 A2971 RMK AO2 PK WND 02032/1450 SLP060 60003 T02170189 58031 TSNO
PMDY 071356Z AUTO 02019G27KT 10SM BKN019 BKN023 OVC030 22/19 A2974 RMK AO2 PK WND 02032/1340 RAE07 SLP073 P0000 T02170189 TSNO
PMDY 071335Z AUTO 02020G27KT 10SM BKN017 BKN026 BKN034 22/19 A2975 RMK AO2 PK WND 03031/1311 RAE07 PRESFR P0000 TSNO
PMDY 071256Z AUTO 03018G29KT 7SM -RA 21/19 A2978 RMK AO2 PK WND 03031/1223 RAB22 SLP084 P0003 T02060194 TSNO $
PMDY 071233Z AUTO 02019G27KT 8SM -RA 21/19 A2979 RMK AO2 PK WND 03031/1223 RAB22 P0001 TSNO $
PMDY 071225Z AUTO 03019G31KT 5SM -RA BR BKN017 BKN025 OVC110 21/19 A2980 RMK AO2 PK WND 03031/1223 RAB22 CIG 011V021 P0001 TSNO
PMDY 071156Z AUTO 03020G29KT 10SM 21/19 A2980 RMK AO2 PK WND 03034/1126 RAB04E50 SLP092 P0000 60000 T02110189 10211 20200 58036 TSNO
PMDY 071146Z AUTO 02018G33KT 7SM -RA 21/19 A2981 RMK AO2 PK WND 03034/1126 RAB04 P0000 TSNO
PMDY 071056Z AUTO 02019G30KT 9SM BKN015 OVC023 21/19 A2983 RMK AO2 PK WND 03031/1029 RAE02 SLP104 P0000 T02110189 402280200 TSNO
PMDY 070956Z AUTO 02021G30KT 8SM -RA FEW015 BKN020 OVC029 21/18 A2987 RMK AO2 PK WND 03035/0945 RAB51 SLP116 P0000 T02060183 TSNO
PMDY 070856Z AUTO 02020G30KT 9SM OVC020 21/18 A2991 RMK AO2 PK WND 02031/0813 RAE27 SLP128 P0000 60000 T02110178 58018 TSNO
PMDY 070828Z AUTO 02018G29KT 10SM 21/18 A2992 RMK AO2 PK WND 02031/0813 RAE27 P0000 TSNO
PMDY 070815Z AUTO 02017G31KT 7SM -RA BKN017 OVC025 21/18 A2993 RMK AO2 PK WND 02031/0813 P0000 TSNO
PMDY 070756Z AUTO 02020G31KT 10SM -RA 20/18 A2992 RMK AO2 PK WND 03031/0751 RAB34 SLP133 P0000 T02000178 TSNO
PMDY 070744Z AUTO 02016G29KT 9SM -RA 20/18 A2993 RMK AO2 PK WND 04030/0702 RAB34 P0000 TSNO
PMDY 070656Z AUTO 02018G28KT 10SM BKN024 OVC029 21/17 A2994 RMK AO2 PK WND 02033/0626 RAE27 SLP140 P0000 T02110167 TSNO
PMDY 070624Z AUTO 02014G28KT 10SM -RA BKN022 BKN029 20/17 A2995 RMK AO2 PK WND 03028/0615 P0000 TSNO
PMDY 070613Z AUTO 02020G28KT 9SM -RA FEW022 SCT027 BKN031 20/17 A2995 RMK AO2 PK WND 02028/0613 P0000 TSNO
PMDY 070556Z AUTO 02017G29KT 9SM -RA BKN027 OVC033 21/16 A2996 RMK AO2 PK WND 03033/0504 RAE27B56 SLP145 P0000 60000 T02060161 10228 20206 58002 TSNO
PMDY 070542Z AUTO 02018G29KT 10SM OVC029 21/16 A2995 RMK AO2 PK WND 03033/0504 RAE27 P0000 TSNO
PMDY 070526Z AUTO 02017G30KT 10SM -RA OVC031 21/16 A2996 RMK AO2 PK WND 03033/0504 P0000 TSNO
PMDY 070513Z AUTO 02020G33KT 9SM BKN029 OVC035 21/16 A2997 RMK AO2 PK WND 03033/0504 RAE09 P0000 TSNO
PMDY 070456Z AUTO 02020G32KT 9SM -RA OVC031 21/16 A2996 RMK AO2 PK WND 02032/0452 RAB54 SLP146 P0000 T02110156 TSNO
PMDY 070356Z AUTO 01016G30KT 10SM OVC033 21/15 A2996 RMK AO2 PK WND 01030/0353 SLP148 T02110150 TSNO
PMDY 070256Z AUTO 01021G29KT 10SM OVC039 22/14 A2996 RMK AO2 PK WND 03035/0241 SLP148 T02170144 58028 TSNO
PMDY 070156Z AUTO 02021G31KT 10SM BKN039 OVC050 22/14 A2999 RMK AO2 PK WND 03032/0145 SLP158 T02220139 TSNO
PMDY 070056Z AUTO 02019G28KT 10SM BKN037 OVC047 22/14 A3002 RMK AO2 PK WND 03030/0039 SLP168 T02220144 TSNO
PMDY 062356Z AUTO 01019G28KT 10SM SCT039 BKN047 OVC055 22/14 A3005 RMK AO2 PK WND 03028/2355 SLP176 T02220139 10228 20200 58039 TSNO
PMDY 062256Z AUTO 02014G30KT 10SM SCT038 OVC049 22/14 A3010 RMK AO2 PK WND 02030/2247 SLP193 T02220139 TSNO
PMDY 062156Z AUTO 02019G27KT 10SM BKN037 OVC049 22/14 A3013 RMK AO2 PK WND 03030/2106 SLP205 T02220139 TSNO
PMDY 062056Z AUTO 02017G25KT 10SM FEW034 SCT042 OVC050 22/14 A3016 RMK AO2 SLP215 T02170139 58004 TSNO
PMDY 061956Z AUTO 02016G28KT 10SM SCT038 BKN055 OVC110 21/14 A3016 RMK AO2 PK WND 02028/1953 SLP215 T02110139 TSNO
PMDY 061856Z AUTO 03017G24KT 10SM BKN040 BKN050 OVC110 21/13 A3018 RMK AO2 PK WND 03027/1811 SLP220 T02060133 TSNO
PMDY 061756Z AUTO 03019G26KT 10SM FEW040 SCT060 BKN110 21/13 A3018 RMK AO2 PK WND 03028/1658 SLP219 T02060128 10206 20200 56012 TSNO
PMDY 061656Z AUTO 04019G29KT 10SM SCT040 BKN060 OVC120 20/13 A3018 RMK AO2 PK WND 04029/1655 SLP220 T02000128 TSNO
PMDY 061556Z AUTO 02015G25KT 10SM SCT036 BKN060 OVC110 20/13 A3019 RMK AO2 PK WND 02027/1514 SLP225 T02000133 TSNO
PMDY 061456Z AUTO 03019G23KT 10SM BKN039 OVC110 20/13 A3021 RMK AO2 PK WND 05027/1425 SLP232 T02000128 58022 TSNO
PMDY 061356Z AUTO 02014G22KT 10SM BKN043 BKN060 OVC110 20/13 A3024 RMK AO2 PK WND 04028/1314 SLP240 T02000128 TSNO
PMDY 061256Z AUTO 03016G26KT 10SM SCT038 BKN045 OVC095 20/12 A3026 RMK AO2 PK WND 03029/1224 SLP248 T02000122 TSNO
PMDY 061156Z AUTO 02018G27KT 10SM SCT038 BKN045 OVC100 20/13 A3028 RMK AO2 PK WND 02027/1149 SLP254 T02000128 10200 20194 58022 TSNO
PMDY 061056Z AUTO 03016G25KT 10SM SCT037 BKN110 20/13 A3031 RMK AO2 SLP266 T02000128 402220194 TSNO
PMDY 060956Z AUTO 03016G23KT 10SM FEW035 SCT045 BKN070 20/13 A3033 RMK AO2 PK WND 02027/0900 SLP273 T02000133 TSNO
PMDY 060856Z AUTO 02014G23KT 10SM BKN037 BKN090 BKN110 20/13 A3034 RMK AO2 SLP276 T02000133 58006 TSNO
PMDY 060756Z AUTO 03015G23KT 10SM SCT039 SCT095 BKN110 20/13 A3035 RMK AO2 PK WND 02026/0720 SLP279 T02000128 TSNO
PMDY 060656Z AUTO 02012G23KT 10SM SCT039 SCT060 BKN100 20/13 A3036 RMK AO2 SLP280 T02000128 TSNO